createdAt,value
2022-08-30T00:02:02.882Z,5.03
2022-08-30T00:04:30.245Z,4.90
2022-08-30T00:06:57.821Z,5.03
2022-08-30T00:09:25.134Z,5.60
2022-08-30T00:11:52.537Z,4.38
2022-08-30T00:14:20.456Z,4.90
2022-08-30T00:16:47.773Z,4.93
2022-08-30T00:19:15.145Z,4.20
2022-08-30T00:21:42.460Z,4.05
2022-08-30T00:24:09.839Z,3.97
2022-08-30T00:26:37.132Z,4.45
2022-08-30T00:29:04.719Z,3.60
2022-08-30T00:31:32.188Z,3.55
2022-08-30T00:33:59.585Z,3.83
2022-08-30T00:36:27.726Z,3.72
2022-08-30T00:38:55.081Z,4.47
2022-08-30T00:41:22.904Z,4.32
2022-08-30T00:43:50.326Z,4.95
2022-08-30T00:46:17.783Z,3.80
2022-08-30T00:48:49.625Z,4.25
2022-08-30T00:51:19.794Z,4.53
2022-08-30T00:53:55.396Z,4.57
2022-08-30T00:56:25.345Z,4.10
2022-08-30T00:58:57.001Z,3.63
2022-08-30T01:01:26.081Z,3.97
2022-08-30T01:03:54.412Z,3.40
2022-08-30T01:06:22.021Z,3.83
2022-08-30T01:08:49.888Z,4.45
2022-08-30T01:11:22.230Z,4.25
2022-08-30T01:13:52.084Z,3.92
2022-08-30T01:16:20.836Z,3.92
2022-08-30T01:18:52.281Z,3.17
2022-08-30T01:21:51.021Z,3.53
2022-08-30T01:24:19.961Z,3.00
2022-08-30T01:26:47.217Z,3.75
2022-08-30T01:29:21.610Z,4.70
2022-08-30T01:31:49.471Z,4.95
2022-08-30T01:34:17.319Z,3.53
2022-08-30T01:36:46.332Z,3.70
2022-08-30T01:39:19.362Z,4.07
2022-08-30T01:41:47.051Z,5.03
2022-08-30T01:44:15.390Z,5.18
2022-08-30T01:46:47.313Z,4.07
2022-08-30T01:49:26.932Z,2.95
2022-08-30T01:54:33.716Z,3.28
2022-08-30T01:57:10.017Z,3.55
2022-08-30T01:59:40.028Z,3.03
2022-08-30T02:02:07.761Z,3.55
2022-08-30T02:04:36.815Z,3.30
2022-08-30T02:07:05.400Z,3.17
2022-08-30T02:09:32.897Z,3.45
2022-08-30T02:12:00.229Z,3.85
2022-08-30T02:14:27.775Z,3.97
2022-08-30T02:16:55.196Z,3.38
2022-08-30T02:19:22.643Z,3.50
2022-08-30T02:21:50.648Z,3.47
2022-08-30T02:24:18.055Z,3.50
2022-08-30T02:26:45.437Z,5.82
2022-08-30T02:29:13.081Z,4.07
2022-08-30T02:31:40.736Z,3.90
2022-08-30T02:34:08.165Z,4.30
2022-08-30T02:36:35.450Z,3.42
2022-08-30T02:39:03.498Z,3.40
2022-08-30T02:41:30.816Z,3.83
2022-08-30T02:44:00.355Z,3.63
2022-08-30T02:46:33.132Z,3.35
2022-08-30T02:49:13.186Z,3.63
2022-08-30T02:51:48.755Z,3.60
2022-08-30T02:54:19.985Z,3.25
2022-08-30T02:56:49.024Z,2.85
2022-08-30T02:59:18.115Z,3.08
2022-08-30T03:01:45.740Z,3.60
2022-08-30T03:04:13.184Z,3.45
2022-08-30T03:06:40.465Z,3.35
2022-08-30T03:09:07.853Z,3.03
2022-08-30T03:11:35.332Z,3.20
2022-08-30T03:14:02.689Z,3.80
2022-08-30T03:16:30.221Z,3.30
2022-08-30T03:18:57.705Z,3.50
2022-08-30T03:21:25.160Z,3.05
2022-08-30T03:23:52.456Z,3.92
2022-08-30T03:26:19.849Z,3.60
2022-08-30T03:28:47.441Z,3.30
2022-08-30T03:31:14.756Z,3.47
2022-08-30T03:33:42.076Z,4.45
2022-08-30T03:36:11.117Z,3.97
2022-08-30T03:38:40.338Z,4.85
2022-08-30T03:41:09.567Z,4.53
2022-08-30T03:43:37.679Z,4.50
2022-08-30T03:46:05.888Z,4.25
2022-08-30T03:48:33.304Z,4.90
2022-08-30T03:51:00.652Z,4.60
2022-08-30T03:53:28.031Z,4.57
2022-08-30T03:55:55.747Z,5.05
2022-08-30T03:58:25.104Z,4.68
2022-08-30T04:00:52.573Z,4.07
2022-08-30T04:03:25.792Z,4.80
2022-08-30T04:05:56.581Z,5.47
2022-08-30T04:08:25.127Z,5.03
2022-08-30T04:10:53.635Z,6.45
2022-08-30T04:13:22.185Z,7.88
2022-08-30T04:15:49.722Z,6.93
2022-08-30T04:18:17.724Z,6.88
2022-08-30T04:20:45.123Z,6.80
2022-08-30T04:23:12.558Z,7.20
2022-08-30T04:25:42.145Z,7.00
2022-08-30T04:28:10.623Z,6.50
2022-08-30T04:30:44.362Z,6.00
2022-08-30T04:33:14.444Z,5.65
2022-08-30T04:35:48.386Z,5.45
2022-08-30T04:38:18.235Z,4.45
2022-08-30T04:40:50.302Z,4.70
2022-08-30T04:43:17.800Z,4.85
2022-08-30T04:45:45.352Z,3.88
2022-08-30T04:48:12.679Z,3.65
2022-08-30T04:50:40.450Z,3.97
2022-08-30T04:53:13.900Z,3.10
2022-08-30T04:55:43.485Z,3.30
2022-08-30T04:58:12.208Z,3.38
2022-08-30T05:00:42.214Z,3.33
2022-08-30T05:03:09.723Z,2.60
2022-08-30T05:05:39.912Z,2.67
2022-08-30T05:08:15.955Z,2.83
2022-08-30T05:10:47.306Z,2.40
2022-08-30T05:13:16.754Z,2.20
2022-08-30T05:15:45.258Z,3.67
2022-08-30T05:18:14.516Z,3.33
2022-08-30T05:20:44.104Z,2.60
2022-08-30T05:23:11.565Z,2.40
2022-08-30T05:25:42.420Z,2.10
2022-08-30T05:28:10.259Z,2.22
2022-08-30T05:30:38.436Z,2.05
2022-08-30T05:33:06.056Z,2.30
2022-08-30T05:35:33.523Z,1.90
2022-08-30T05:38:00.967Z,2.38
2022-08-30T05:40:29.254Z,3.67
2022-08-30T05:42:56.740Z,4.68
2022-08-30T05:45:24.102Z,5.72
2022-08-30T05:47:51.449Z,4.60
2022-08-30T05:50:19.036Z,4.28
2022-08-30T05:52:46.446Z,3.97
2022-08-30T05:55:15.084Z,3.97
2022-08-30T05:57:42.628Z,4.40
2022-08-30T06:00:15.427Z,4.30
2022-08-30T06:02:43.356Z,4.60
2022-08-30T06:05:14.247Z,4.57
2022-08-30T06:07:43.557Z,4.93
2022-08-30T06:10:12.631Z,4.53
2022-08-30T06:12:40.550Z,5.30
2022-08-30T06:15:08.738Z,5.25
2022-08-30T06:17:36.558Z,5.30
2022-08-30T06:20:04.614Z,5.70
2022-08-30T06:22:31.799Z,5.63
2022-08-30T06:24:59.054Z,5.75
2022-08-30T06:27:26.485Z,6.00
2022-08-30T06:29:53.942Z,5.78
2022-08-30T06:32:21.488Z,6.57
2022-08-30T06:34:49.610Z,5.72
2022-08-30T06:37:29.707Z,5.35
2022-08-30T06:39:58.933Z,5.22
2022-08-30T06:42:32.344Z,6.20
2022-08-30T06:45:01.847Z,5.63
2022-08-30T06:47:30.430Z,5.93
2022-08-30T06:49:59.109Z,6.05
2022-08-30T06:52:26.472Z,6.38
2022-08-30T06:54:58.358Z,7.10
2022-08-30T06:57:26.462Z,6.32
2022-08-30T06:59:58.554Z,5.93
2022-08-30T07:02:26.531Z,6.15
2022-08-30T07:04:54.305Z,5.65
2022-08-30T07:07:21.727Z,6.22
2022-08-30T07:09:49.281Z,6.72
2022-08-30T07:12:17.453Z,5.90
2022-08-30T07:14:44.821Z,5.65
2022-08-30T07:17:34.538Z,6.82
2022-08-30T07:20:05.056Z,6.85
2022-08-30T07:22:33.953Z,6.10
2022-08-30T07:25:01.913Z,5.40
2022-08-30T07:27:29.691Z,6.10
2022-08-30T07:29:58.865Z,5.38
2022-08-30T07:32:26.561Z,6.38
2022-08-30T07:34:53.839Z,5.95
2022-08-30T07:37:21.210Z,5.20
2022-08-30T07:39:48.436Z,5.10
2022-08-30T07:42:16.585Z,4.22
2022-08-30T07:44:44.787Z,5.72
2022-08-30T07:47:12.328Z,4.75
2022-08-30T07:49:39.742Z,5.10
2022-08-30T07:52:07.058Z,4.25
2022-08-30T07:54:34.615Z,4.15
2022-08-30T07:57:01.956Z,3.92
2022-08-30T07:59:31.819Z,3.97
2022-08-30T08:02:01.752Z,3.90
2022-08-30T08:04:29.120Z,4.18
2022-08-30T08:06:56.639Z,4.05
2022-08-30T08:09:23.998Z,4.10
2022-08-30T08:11:51.338Z,3.78
2022-08-30T08:14:19.033Z,4.28
2022-08-30T08:16:46.757Z,3.80
2022-08-30T08:19:14.223Z,3.72
2022-08-30T08:21:41.635Z,3.80
2022-08-30T08:24:09.420Z,4.28
2022-08-30T08:26:41.029Z,3.95
2022-08-30T08:29:12.753Z,3.55
2022-08-30T08:31:41.695Z,3.50
2022-08-30T08:34:09.263Z,4.20
2022-08-30T08:36:36.846Z,3.78
2022-08-30T08:39:07.772Z,4.22
2022-08-30T08:42:33.743Z,3.83
2022-08-30T08:45:14.744Z,4.00
2022-08-30T08:47:53.927Z,3.97
2022-08-30T08:50:24.217Z,3.35
2022-08-30T08:53:36.160Z,3.22
2022-08-30T08:56:12.670Z,3.35
2022-08-30T08:58:51.505Z,3.40
2022-08-30T09:01:24.001Z,3.75
2022-08-30T09:03:52.118Z,3.38
2022-08-30T09:06:49.926Z,3.60
2022-08-30T09:09:28.558Z,4.10
2022-08-30T09:11:56.014Z,3.80
2022-08-30T09:14:34.850Z,3.67
2022-08-30T09:17:09.955Z,3.70
2022-08-30T09:19:57.119Z,3.28
2022-08-30T09:22:29.231Z,3.97
2022-08-30T09:25:06.896Z,3.47
2022-08-30T09:27:47.162Z,3.95
2022-08-30T09:30:28.573Z,4.10
2022-08-30T09:32:57.112Z,3.88
2022-08-30T09:35:43.867Z,3.97
2022-08-30T09:38:35.999Z,4.10
2022-08-30T09:41:44.448Z,3.45
2022-08-30T09:44:24.524Z,3.72
2022-08-30T09:46:58.859Z,3.70
2022-08-30T09:49:38.112Z,3.55
2022-08-30T09:55:14.488Z,3.15
2022-08-30T09:58:25.725Z,3.47
2022-08-30T10:01:20.436Z,4.03
2022-08-30T10:04:31.034Z,3.80
2022-08-30T10:07:29.031Z,4.40
2022-08-30T10:10:30.495Z,4.13
2022-08-30T10:13:33.731Z,3.75
2022-08-30T10:16:06.577Z,3.92
2022-08-30T10:19:16.406Z,4.32
2022-08-30T10:21:58.331Z,4.50
2022-08-30T10:24:44.028Z,3.83
2022-08-30T10:27:25.999Z,4.07
2022-08-30T10:30:15.182Z,4.18
2022-08-30T10:33:06.812Z,4.22
2022-08-30T10:35:53.224Z,4.47
2022-08-30T10:38:41.083Z,4.05
2022-08-30T10:41:28.369Z,4.03
2022-08-30T10:44:07.050Z,3.78
2022-08-30T10:46:48.440Z,4.57
2022-08-30T10:49:23.416Z,5.60
2022-08-30T10:52:13.763Z,4.10
2022-08-30T10:55:09.891Z,4.15
2022-08-30T10:57:38.759Z,3.53
2022-08-30T11:00:23.403Z,3.63
2022-08-30T11:03:20.331Z,3.83
2022-08-30T11:06:22.862Z,3.67
2022-08-30T11:09:04.908Z,3.00
2022-08-30T11:12:13.597Z,3.85
2022-08-30T11:14:46.615Z,3.75
2022-08-30T11:17:37.190Z,3.70
2022-08-30T11:20:21.400Z,3.83
2022-08-30T11:23:19.549Z,3.65
2022-08-30T11:25:57.852Z,3.45
2022-08-30T11:28:37.556Z,3.75
2022-08-30T11:34:01.334Z,3.40
2022-08-30T11:36:46.130Z,4.03
2022-08-30T11:39:43.114Z,3.72
2022-08-30T11:45:25.295Z,3.70
2022-08-30T11:48:10.055Z,3.20
2022-08-30T11:51:07.173Z,3.53
2022-08-30T11:54:01.321Z,3.63
2022-08-30T11:57:03.230Z,2.90
2022-08-30T11:59:49.393Z,3.40
2022-08-30T12:02:47.752Z,3.50
2022-08-30T12:05:38.698Z,3.58
2022-08-30T12:08:37.310Z,3.40
2022-08-30T12:11:27.801Z,3.10
2022-08-30T12:13:56.769Z,4.05
2022-08-30T12:17:01.679Z,3.58
2022-08-30T12:19:32.502Z,3.22
2022-08-30T12:22:08.562Z,3.10
2022-08-30T12:24:44.335Z,3.05
2022-08-30T12:27:32.534Z,3.13
2022-08-30T12:30:08.888Z,3.05
2022-08-30T12:32:50.601Z,3.17
2022-08-30T12:35:25.878Z,2.97
2022-08-30T12:38:01.720Z,3.42
2022-08-30T12:40:31.826Z,3.45
2022-08-30T12:45:39.730Z,3.13
2022-08-30T12:48:11.764Z,3.00
2022-08-30T12:50:57.706Z,2.95
2022-08-30T12:53:33.470Z,3.30
2022-08-30T12:56:09.449Z,2.83
2022-08-30T12:58:52.900Z,2.85
2022-08-30T13:01:32.490Z,2.80
2022-08-30T13:04:19.892Z,2.90
2022-08-30T13:07:02.272Z,2.67
2022-08-30T13:09:42.779Z,2.40
2022-08-30T13:12:24.263Z,2.40
2022-08-30T13:14:53.913Z,2.50
2022-08-30T13:17:24.493Z,2.50
2022-08-30T13:20:27.492Z,2.22
2022-08-30T13:23:10.994Z,2.35
2022-08-30T13:25:40.035Z,2.47
2022-08-30T13:28:08.313Z,2.58
2022-08-30T13:30:36.200Z,2.50
2022-08-30T13:33:03.606Z,2.67
2022-08-30T13:35:32.602Z,2.33
2022-08-30T13:38:02.031Z,2.58
2022-08-30T13:40:29.450Z,2.00
2022-08-30T13:42:58.791Z,2.65
2022-08-30T13:45:42.217Z,2.60
2022-08-30T13:48:11.975Z,2.20
2022-08-30T13:50:39.650Z,2.57
2022-08-30T13:53:09.294Z,2.38
2022-08-30T13:58:06.340Z,2.25
2022-08-30T14:00:36.923Z,2.20
2022-08-30T14:03:05.485Z,2.80
2022-08-30T14:06:05.240Z,2.60
2022-08-30T14:08:48.544Z,2.53
2022-08-30T14:11:21.178Z,2.53
2022-08-30T14:16:43.252Z,2.50
2022-08-30T14:19:12.671Z,2.42
2022-08-30T14:21:40.546Z,2.00
2022-08-30T14:24:08.253Z,2.40
2022-08-30T14:26:45.859Z,2.20
2022-08-30T14:29:18.464Z,2.55
2022-08-30T14:31:48.740Z,2.40
2022-08-30T14:34:17.676Z,2.83
2022-08-30T14:36:47.105Z,2.55
2022-08-30T14:39:19.118Z,2.53
2022-08-30T14:41:53.645Z,2.60
2022-08-30T14:44:25.134Z,2.72
2022-08-30T14:46:52.468Z,3.45
2022-08-30T14:49:21.484Z,3.40
2022-08-30T14:51:49.533Z,3.22
2022-08-30T14:54:20.206Z,3.40
2022-08-30T14:56:47.751Z,3.63
2022-08-30T14:59:16.431Z,3.58
2022-08-30T15:01:45.116Z,3.50
2022-08-30T15:04:14.946Z,3.45
2022-08-30T15:06:45.586Z,3.42
2022-08-30T15:09:18.682Z,3.50
2022-08-30T15:11:53.618Z,3.00
2022-08-30T15:14:24.089Z,3.53
2022-08-30T15:16:55.393Z,3.40
2022-08-30T15:19:23.066Z,3.63
2022-08-30T15:21:51.400Z,3.90
2022-08-30T15:24:27.653Z,4.15
2022-08-30T15:26:59.491Z,4.00
2022-08-30T15:29:27.990Z,3.53
2022-08-30T15:31:59.205Z,3.92
2022-08-30T15:34:28.332Z,4.28
2022-08-30T15:36:57.395Z,3.72
2022-08-30T15:39:25.004Z,4.00
2022-08-30T15:41:58.443Z,3.63
2022-08-30T15:44:27.869Z,3.78
2022-08-30T15:46:55.423Z,3.42
2022-08-30T15:49:24.791Z,3.72
2022-08-30T15:51:54.196Z,3.50
2022-08-30T15:54:23.985Z,3.92
2022-08-30T15:56:59.235Z,3.60
2022-08-30T15:59:31.956Z,4.05
2022-08-30T16:02:00.048Z,3.67
2022-08-30T16:04:27.624Z,3.53
2022-08-30T16:06:55.055Z,3.75
2022-08-30T16:09:23.527Z,4.30
2022-08-30T16:11:50.876Z,3.85
2022-08-30T16:14:18.360Z,3.88
2022-08-30T16:16:48.689Z,3.58
2022-08-30T16:21:44.196Z,4.03
2022-08-30T16:24:13.757Z,3.40
2022-08-30T16:26:43.131Z,3.42
2022-08-30T16:29:12.546Z,3.40
2022-08-30T16:31:43.569Z,3.37
2022-08-30T16:34:16.261Z,3.40
2022-08-30T16:36:43.752Z,3.33
2022-08-30T16:39:13.499Z,3.28
2022-08-30T16:41:41.864Z,3.17
2022-08-30T16:44:09.929Z,2.92
2022-08-30T16:46:41.389Z,3.10
2022-08-30T16:49:10.456Z,3.42
2022-08-30T16:51:38.541Z,3.42
2022-08-30T16:54:08.205Z,3.47
2022-08-30T16:59:10.902Z,2.90
2022-08-30T17:01:39.656Z,3.05
2022-08-30T17:04:08.404Z,3.10
2022-08-30T17:06:36.713Z,3.25
2022-08-30T17:09:06.506Z,3.38
2022-08-30T17:11:36.510Z,3.47
2022-08-30T17:14:04.753Z,3.30
2022-08-30T17:16:34.293Z,3.25
2022-08-30T17:19:01.882Z,3.10
2022-08-30T17:21:30.114Z,2.88
2022-08-30T17:24:01.850Z,2.65
2022-08-30T17:26:33.755Z,3.38
2022-08-30T17:29:01.480Z,3.33
2022-08-30T17:34:18.458Z,3.03
2022-08-30T17:36:46.213Z,2.97
2022-08-30T17:39:13.505Z,3.20
2022-08-30T17:41:50.546Z,2.75
2022-08-30T17:44:25.878Z,3.65
2022-08-30T17:47:11.811Z,2.90
2022-08-30T17:49:39.674Z,2.22
2022-08-30T17:52:07.114Z,3.03
2022-08-30T17:54:36.069Z,3.05
2022-08-30T17:57:11.308Z,3.10
2022-08-30T17:59:40.437Z,3.10
2022-08-30T18:02:11.255Z,2.70
2022-08-30T18:04:41.557Z,3.00
2022-08-30T18:07:11.880Z,3.30
2022-08-30T18:09:41.171Z,2.63
2022-08-30T18:12:10.526Z,2.80
2022-08-30T18:14:39.326Z,2.90
2022-08-30T18:17:08.192Z,2.20
2022-08-30T18:19:36.637Z,2.93
2022-08-30T18:22:16.129Z,2.50
2022-08-30T18:24:43.921Z,2.67
2022-08-30T18:27:11.371Z,2.60
2022-08-30T18:29:41.327Z,2.67
2022-08-30T18:34:56.049Z,2.83
2022-08-30T18:37:25.263Z,3.00
2022-08-30T18:39:52.774Z,2.53
2022-08-30T18:42:20.091Z,2.95
2022-08-30T18:44:48.145Z,2.80
2022-08-30T18:47:15.557Z,3.13
2022-08-30T18:49:43.972Z,3.40
2022-08-30T18:52:12.125Z,3.10
2022-08-30T18:54:52.769Z,3.03
2022-08-30T18:57:22.200Z,2.58
2022-08-30T18:59:50.228Z,3.25
2022-08-30T19:02:17.947Z,2.72
2022-08-30T19:04:47.231Z,2.75
2022-08-30T19:07:17.255Z,2.83
2022-08-30T19:09:46.877Z,2.85
2022-08-30T19:12:15.086Z,3.22
2022-08-30T19:14:43.456Z,2.97
2022-08-30T19:17:11.485Z,3.72
2022-08-30T19:19:46.354Z,3.30
2022-08-30T19:22:18.845Z,3.13
2022-08-30T19:24:47.496Z,3.75
2022-08-30T19:27:15.097Z,2.90
2022-08-30T19:29:42.917Z,3.28
2022-08-30T19:32:13.101Z,2.95
2022-08-30T19:34:40.759Z,2.83
2022-08-30T19:37:08.785Z,3.00
2022-08-30T19:39:43.283Z,3.20
2022-08-30T19:42:14.446Z,3.85
2022-08-30T19:44:41.811Z,3.78
2022-08-30T19:47:11.132Z,3.33
2022-08-30T19:49:38.669Z,3.38
2022-08-30T19:52:05.982Z,3.03
2022-08-30T19:54:33.496Z,3.60
2022-08-30T19:57:00.937Z,3.53
2022-08-30T19:59:28.449Z,3.40
2022-08-30T20:01:57.125Z,3.90
2022-08-30T20:04:24.475Z,3.90
2022-08-30T20:06:51.860Z,4.00
2022-08-30T20:09:22.196Z,4.82
2022-08-30T20:11:52.544Z,3.35
2022-08-30T20:14:23.006Z,3.90
2022-08-30T20:16:52.153Z,3.83
2022-08-30T20:19:21.837Z,3.53
2022-08-30T20:21:55.305Z,3.42
2022-08-30T20:24:23.739Z,3.00
2022-08-30T20:24:27.094Z,2.28
2022-08-30T20:24:31.674Z,4.65
2022-08-30T20:26:59.388Z,4.68
2022-08-30T20:29:26.809Z,4.20
2022-08-30T20:31:54.184Z,3.97
2022-08-30T20:34:27.340Z,4.72
2022-08-30T20:36:56.465Z,5.03
2022-08-30T20:39:24.349Z,4.55
2022-08-30T20:41:52.130Z,6.22
2022-08-30T20:44:19.498Z,4.47
2022-08-30T20:46:49.655Z,4.97
2022-08-30T20:49:19.730Z,4.47
2022-08-30T20:51:52.306Z,4.80
2022-08-30T20:54:20.418Z,4.88
2022-08-30T20:56:47.885Z,4.47
2022-08-30T20:59:15.208Z,4.72
2022-08-30T21:01:43.686Z,5.35
2022-08-30T21:04:11.043Z,5.05
2022-08-30T21:06:38.822Z,4.85
2022-08-30T21:09:08.683Z,4.82
2022-08-30T21:11:38.202Z,4.90
2022-08-30T21:14:12.648Z,5.22
2022-08-30T21:16:40.121Z,5.38
2022-08-30T21:19:07.499Z,6.32
2022-08-30T21:21:35.022Z,5.38
2022-08-30T21:24:09.511Z,5.90
2022-08-30T21:26:40.377Z,5.70
2022-08-30T21:29:08.162Z,6.05
2022-08-30T21:31:39.852Z,6.32
2022-08-30T21:34:08.031Z,5.72
2022-08-30T21:36:48.595Z,5.60
2022-08-30T21:39:28.412Z,5.80
2022-08-30T21:41:57.170Z,5.72
2022-08-30T21:44:27.239Z,6.35
2022-08-30T21:46:55.732Z,6.38
2022-08-30T21:49:24.976Z,7.22
2022-08-30T21:51:54.798Z,6.57
2022-08-30T21:54:24.276Z,7.30
2022-08-30T21:56:54.027Z,7.40
2022-08-30T21:59:21.997Z,10.15
2022-08-30T22:01:50.273Z,9.95
2022-08-30T22:04:19.426Z,9.60
2022-08-30T22:06:50.331Z,8.48
2022-08-30T22:09:24.972Z,10.73
2022-08-30T22:11:53.675Z,9.63
2022-08-30T22:14:22.108Z,9.43
2022-08-30T22:16:50.261Z,9.15
2022-08-30T22:19:22.900Z,9.15
2022-08-30T22:21:51.892Z,8.13
2022-08-30T22:24:21.805Z,8.27
2022-08-30T22:26:49.317Z,8.13
2022-08-30T22:29:17.397Z,8.48
2022-08-30T22:31:44.907Z,9.50
2022-08-30T22:34:12.658Z,8.50
2022-08-30T22:36:40.584Z,9.75
2022-08-30T22:39:09.812Z,8.55
2022-08-30T22:41:38.395Z,8.70
2022-08-30T22:44:06.448Z,7.55
2022-08-30T22:46:35.583Z,7.65
2022-08-30T22:49:06.868Z,7.88
2022-08-30T22:51:34.997Z,7.72
2022-08-30T22:54:05.006Z,6.85
2022-08-30T22:56:34.963Z,6.40
2022-08-30T22:59:03.366Z,8.05
2022-08-30T23:01:35.545Z,7.00
2022-08-30T23:04:05.851Z,7.53
2022-08-30T23:06:34.323Z,7.28
2022-08-30T23:09:02.411Z,10.02
2022-08-30T23:11:30.667Z,7.25
2022-08-30T23:14:02.166Z,6.78
2022-08-30T23:16:30.319Z,7.53
2022-08-30T23:18:57.850Z,7.35
2022-08-30T23:21:28.867Z,6.88
2022-08-30T23:24:16.396Z,6.85
2022-08-30T23:27:03.754Z,6.63
2022-08-30T23:29:50.851Z,6.38
2022-08-30T23:32:37.029Z,5.70
2022-08-30T23:35:29.043Z,6.03
2022-08-30T23:38:18.250Z,6.32
2022-08-30T23:41:04.280Z,5.53
2022-08-30T23:43:50.332Z,5.47
2022-08-30T23:46:36.168Z,5.35
2022-08-30T23:49:22.736Z,5.45
2022-08-30T23:52:08.747Z,6.03
2022-08-30T23:54:57.436Z,5.85
2022-08-30T23:57:44.918Z,6.40
